createdAt,value
2019-05-01T00:01:49.576Z,99.60
2019-05-01T00:06:59.212Z,99.60
2019-05-01T00:12:05.493Z,99.60
2019-05-01T00:17:12.317Z,99.60
2019-05-01T00:22:18.821Z,99.60
2019-05-01T00:27:25.379Z,99.60
2019-05-01T00:32:31.856Z,99.60
2019-05-01T00:37:38.523Z,99.60
2019-05-01T00:42:45.008Z,99.60
2019-05-01T00:47:51.244Z,99.60
2019-05-01T00:52:56.678Z,99.60
2019-05-01T00:58:16.860Z,99.60
2019-05-01T01:03:22.431Z,99.60
2019-05-01T01:08:29.267Z,99.60
2019-05-01T01:13:35.400Z,99.60
2019-05-01T01:18:40.893Z,99.60
2019-05-01T01:23:47.930Z,99.60
2019-05-01T01:28:54.525Z,99.60
2019-05-01T01:34:01.110Z,99.60
2019-05-01T01:39:07.695Z,99.60
2019-05-01T01:44:19.018Z,99.60
2019-05-01T01:49:25.995Z,99.60
2019-05-01T01:54:32.795Z,99.60
2019-05-01T01:59:39.366Z,99.60
2019-05-01T02:05:02.727Z,99.60
2019-05-01T02:10:08.948Z,99.60
2019-05-01T02:15:14.679Z,99.60
2019-05-01T02:20:21.801Z,99.60
2019-05-01T02:25:28.849Z,99.60
2019-05-01T02:30:35.403Z,99.60
2019-05-01T02:35:43.906Z,99.60
2019-05-01T02:40:55.483Z,99.60
2019-05-01T02:46:04.786Z,99.60
2019-05-01T02:51:10.587Z,99.60
2019-05-01T02:56:27.093Z,99.60
2019-05-01T03:01:46.389Z,99.60
2019-05-01T03:06:41.200Z,99.60
2019-05-01T03:11:50.991Z,99.60
2019-05-01T03:17:00.895Z,99.60
2019-05-01T03:22:14.059Z,99.60
2019-05-01T03:27:20.851Z,99.60
2019-05-01T03:32:27.748Z,99.60
2019-05-01T03:37:33.943Z,99.60
2019-05-01T03:42:40.435Z,99.60
2019-05-01T03:47:46.193Z,99.60
2019-05-01T03:52:52.742Z,99.60
2019-05-01T03:57:59.449Z,99.60
2019-05-01T04:03:28.703Z,99.60
2019-05-01T04:08:34.453Z,99.60
2019-05-01T04:13:40.373Z,99.60
2019-05-01T04:18:47.206Z,99.60
2019-05-01T04:23:54.050Z,99.60
2019-05-01T04:29:22.794Z,99.60
2019-05-01T04:34:35.988Z,99.60
2019-05-01T04:39:42.617Z,99.60
2019-05-01T04:44:48.342Z,99.60
2019-05-01T04:49:54.910Z,99.60
2019-05-01T04:55:00.959Z,99.60
2019-05-01T05:00:07.029Z,99.60
2019-05-01T05:05:12.741Z,99.60
2019-05-01T05:10:18.227Z,99.60
2019-05-01T05:15:53.190Z,99.60
2019-05-01T05:21:00.427Z,99.60
2019-05-01T05:26:05.824Z,99.60
2019-05-01T05:31:15.037Z,99.60
2019-05-01T05:36:24.115Z,99.60
2019-05-01T05:41:31.076Z,99.60
2019-05-01T05:46:37.302Z,99.60
2019-05-01T05:51:54.152Z,99.60
2019-05-01T05:57:09.413Z,99.60
2019-05-01T06:02:36.802Z,99.60
2019-05-01T06:08:05.641Z,99.60
2019-05-01T06:13:21.921Z,99.60
2019-05-01T06:18:55.301Z,99.60
2019-05-01T06:24:10.876Z,99.60
2019-05-01T06:29:17.369Z,99.60
2019-05-01T06:34:23.873Z,99.60
2019-05-01T06:39:32.735Z,99.60
2019-05-01T06:44:51.220Z,99.60
2019-05-01T06:50:07.240Z,99.60
2019-05-01T06:55:12.929Z,99.60
2019-05-01T07:00:18.968Z,99.60
2019-05-01T07:05:24.866Z,99.60
2019-05-01T07:10:43.126Z,99.60
2019-05-01T07:15:39.380Z,99.60
2019-05-01T07:20:51.435Z,99.60
2019-05-01T07:25:56.826Z,99.60
2019-05-01T07:31:05.408Z,99.60
2019-05-01T07:36:15.534Z,99.60
2019-05-01T07:41:18.871Z,99.60
2019-05-01T07:46:29.841Z,99.60
2019-05-01T07:51:37.712Z,99.60
2019-05-01T07:56:44.912Z,99.60
2019-05-01T08:02:07.787Z,99.60
2019-05-01T08:07:13.985Z,99.60
2019-05-01T08:12:24.068Z,99.60
2019-05-01T08:17:30.423Z,99.60
2019-05-01T08:22:39.080Z,99.60
2019-05-01T08:27:58.113Z,99.60
2019-05-01T08:33:32.223Z,99.60
2019-05-01T08:38:38.933Z,99.60
2019-05-01T08:43:48.892Z,99.60
2019-05-01T08:49:06.829Z,99.60
2019-05-01T08:54:11.952Z,99.60
2019-05-01T08:59:19.412Z,99.60
2019-05-01T09:04:25.310Z,99.60
2019-05-01T09:09:33.433Z,99.60
2019-05-01T09:14:39.819Z,99.60
2019-05-01T09:19:46.427Z,99.60
2019-05-01T09:24:51.786Z,99.60
2019-05-01T09:29:58.014Z,99.60
2019-05-01T09:35:15.165Z,99.60
2019-05-01T09:40:10.790Z,99.60
2019-05-01T09:45:16.969Z,99.60
2019-05-01T09:50:25.841Z,99.60
2019-05-01T09:56:03.271Z,99.60
2019-05-01T10:01:17.784Z,99.60
2019-05-01T10:06:24.129Z,99.60
2019-05-01T10:11:30.283Z,99.60
2019-05-01T10:16:35.831Z,99.60
2019-05-01T10:21:41.675Z,99.60
2019-05-01T10:26:48.647Z,99.60
2019-05-01T10:32:16.973Z,99.60
2019-05-01T10:37:23.543Z,99.10
2019-05-01T10:42:28.640Z,98.40
2019-05-01T10:47:34.080Z,96.80
2019-05-01T10:52:40.241Z,98.00
2019-05-01T10:57:46.807Z,97.40
2019-05-01T11:02:53.482Z,95.30
2019-05-01T11:07:59.934Z,95.30
2019-05-01T11:13:07.857Z,96.70
2019-05-01T11:18:13.769Z,96.80
2019-05-01T11:23:20.494Z,93.80
2019-05-01T11:28:26.263Z,91.40
2019-05-01T11:33:54.405Z,91.10
2019-05-01T11:39:19.940Z,89.00
2019-05-01T11:44:25.332Z,85.00
2019-05-01T11:49:31.764Z,85.10
2019-05-01T11:54:38.098Z,83.50
2019-05-01T11:59:44.419Z,81.30
2019-05-01T12:04:50.118Z,80.30
2019-05-01T12:09:56.242Z,77.60
2019-05-01T12:15:03.125Z,78.20
2019-05-01T12:20:08.802Z,77.20
2019-05-01T12:25:14.428Z,73.30
2019-05-01T12:30:20.391Z,75.10
2019-05-01T12:35:26.346Z,75.90
2019-05-01T12:40:32.387Z,72.60
2019-05-01T12:45:38.743Z,72.60
2019-05-01T12:50:47.674Z,71.80
2019-05-01T12:56:15.033Z,69.60
2019-05-01T13:01:21.440Z,72.00
2019-05-01T13:06:27.258Z,71.90
2019-05-01T13:11:32.726Z,70.80
2019-05-01T13:16:38.309Z,69.00
2019-05-01T13:21:43.789Z,70.30
2019-05-01T13:26:56.263Z,70.10
2019-05-01T13:32:14.721Z,69.30
2019-05-01T13:37:20.782Z,68.70
2019-05-01T13:42:27.046Z,67.40
2019-05-01T13:47:33.641Z,67.70
2019-05-01T13:52:40.314Z,66.30
2019-05-01T13:57:46.951Z,65.10
2019-05-01T14:02:53.681Z,62.90
2019-05-01T14:08:00.307Z,61.10
2019-05-01T14:13:07.017Z,61.20
2019-05-01T14:18:12.387Z,60.30
2019-05-01T14:23:26.926Z,60.10
2019-05-01T14:28:33.609Z,58.90
2019-05-01T14:33:39.573Z,59.70
2019-05-01T14:38:45.561Z,62.40
2019-05-01T14:43:51.761Z,62.20
2019-05-01T14:48:58.614Z,61.40
2019-05-01T14:54:04.191Z,64.50
2019-05-01T14:59:10.362Z,66.00
2019-05-01T15:04:16.582Z,66.30
2019-05-01T15:09:21.907Z,66.00
2019-05-01T15:14:33.510Z,66.10
2019-05-01T15:19:44.361Z,67.60
2019-05-01T15:24:51.086Z,67.20
2019-05-01T15:29:57.536Z,67.70
2019-05-01T15:35:02.907Z,65.50
2019-05-01T15:40:18.525Z,65.20
2019-05-01T15:45:24.450Z,65.00
2019-05-01T15:50:30.338Z,62.40
2019-05-01T15:55:36.789Z,62.70
2019-05-01T16:00:43.394Z,59.90
2019-05-01T16:05:50.048Z,60.70
2019-05-01T16:11:05.635Z,58.00
2019-05-01T16:16:11.975Z,56.20
2019-05-01T16:21:18.659Z,55.80
2019-05-01T16:26:25.152Z,57.90
2019-05-01T16:31:31.704Z,56.80
2019-05-01T16:36:37.279Z,56.10
2019-05-01T16:41:43.175Z,56.00
2019-05-01T16:46:48.956Z,56.10
2019-05-01T16:51:55.570Z,55.40
2019-05-01T16:57:02.248Z,54.40
2019-05-01T17:02:36.441Z,55.30
2019-05-01T17:08:07.905Z,57.90
2019-05-01T17:13:13.697Z,60.80
2019-05-01T17:18:20.495Z,62.60
2019-05-01T17:23:26.615Z,64.10
2019-05-01T17:28:33.210Z,66.00
2019-05-01T17:33:39.555Z,64.30
2019-05-01T17:38:49.627Z,67.20
2019-05-01T17:43:52.969Z,67.10
2019-05-01T17:49:04.057Z,67.20
2019-05-01T17:54:06.938Z,69.50
2019-05-01T17:59:13.635Z,68.70
2019-05-01T18:04:38.644Z,70.50
2019-05-01T18:09:45.300Z,70.10
2019-05-01T18:14:52.253Z,72.80
2019-05-01T18:19:58.536Z,76.00
2019-05-01T18:25:22.544Z,80.90
2019-05-01T18:30:34.920Z,82.60
2019-05-01T18:35:40.506Z,83.10
2019-05-01T18:41:00.568Z,86.90
2019-05-01T18:46:09.603Z,89.80
2019-05-01T18:51:16.402Z,92.00
2019-05-01T18:56:22.431Z,92.00
2019-05-01T19:01:29.544Z,92.40
2019-05-01T19:06:41.326Z,94.00
2019-05-01T19:11:43.787Z,95.50
2019-05-01T19:16:49.829Z,96.20
2019-05-01T19:21:56.223Z,96.10
2019-05-01T19:27:02.847Z,90.20
2019-05-01T19:32:10.566Z,88.10
2019-05-01T19:37:21.857Z,87.70
2019-05-01T19:42:24.829Z,88.50
2019-05-01T19:47:31.450Z,87.60
2019-05-01T19:52:39.938Z,88.60
2019-05-01T19:57:47.239Z,87.30
2019-05-01T20:02:59.150Z,88.70
2019-05-01T20:08:03.077Z,90.40
2019-05-01T20:13:12.278Z,91.00
2019-05-01T20:18:18.662Z,89.50
2019-05-01T20:23:31.186Z,90.50
2019-05-01T20:28:33.752Z,89.80
2019-05-01T20:33:44.095Z,90.70
2019-05-01T20:38:47.452Z,92.10
2019-05-01T20:43:54.234Z,93.20
2019-05-01T20:49:01.337Z,94.80
2019-05-01T20:54:08.547Z,95.40
2019-05-01T20:59:15.625Z,96.70
2019-05-01T21:04:38.866Z,97.30
2019-05-01T21:09:48.229Z,98.00
2019-05-01T21:14:55.342Z,98.30
2019-05-01T21:20:03.779Z,98.60
2019-05-01T21:25:09.298Z,99.60
2019-05-01T21:30:15.011Z,99.60
2019-05-01T21:35:20.996Z,99.60
2019-05-01T21:40:37.736Z,99.60
2019-05-01T21:45:34.922Z,99.60
2019-05-01T21:50:40.357Z,99.60
2019-05-01T21:55:46.242Z,99.60
2019-05-01T22:00:55.099Z,99.60
2019-05-01T22:06:01.351Z,99.60
2019-05-01T22:11:08.845Z,99.60
2019-05-01T22:16:18.469Z,99.60
2019-05-01T22:21:54.160Z,99.60
2019-05-01T22:27:07.530Z,99.60
2019-05-01T22:32:38.668Z,99.60
2019-05-01T22:37:45.790Z,99.60
2019-05-01T22:42:52.444Z,99.60
2019-05-01T22:47:59.059Z,99.60
2019-05-01T22:53:07.812Z,99.60
2019-05-01T22:58:12.798Z,99.60
2019-05-01T23:03:26.305Z,99.60
2019-05-01T23:08:32.939Z,99.60
2019-05-01T23:13:38.683Z,99.60
2019-05-01T23:18:47.142Z,99.60
2019-05-01T23:23:56.743Z,99.60
2019-05-01T23:29:02.243Z,99.60
2019-05-01T23:34:08.401Z,99.60
2019-05-01T23:39:15.636Z,99.60
2019-05-01T23:44:20.935Z,99.60
2019-05-01T23:49:26.258Z,99.60
2019-05-01T23:54:33.023Z,99.60
2019-05-01T23:59:38.697Z,99.60
